createdAt,value
2022-11-28T00:00:14.704Z,9.70
2022-11-28T00:01:09.841Z,9.40
2022-11-28T00:02:05.291Z,8.70
2022-11-28T00:03:00.903Z,9.30
2022-11-28T00:03:56.081Z,9.00
2022-11-28T00:04:51.351Z,9.30
2022-11-28T00:05:47.800Z,8.90
2022-11-28T00:06:43.243Z,9.60
2022-11-28T00:07:38.900Z,9.90
2022-11-28T00:08:34.119Z,9.70
2022-11-28T00:09:29.306Z,9.30
2022-11-28T00:10:25.168Z,9.90
2022-11-28T00:11:20.388Z,9.80
2022-11-28T00:12:15.535Z,9.60
2022-11-28T00:13:10.680Z,9.20
2022-11-28T00:14:05.869Z,9.90
2022-11-28T00:15:00.882Z,10.50
2022-11-28T00:15:56.056Z,9.90
2022-11-28T00:16:51.191Z,10.70
2022-11-28T00:17:46.279Z,10.20
2022-11-28T00:18:41.297Z,9.70
2022-11-28T00:19:36.334Z,10.30
2022-11-28T00:20:31.404Z,10.00
2022-11-28T00:21:26.454Z,10.00
2022-11-28T00:22:21.499Z,10.60
2022-11-28T00:23:16.545Z,9.80
2022-11-28T00:24:11.579Z,10.20
2022-11-28T00:25:06.634Z,9.80
2022-11-28T00:26:01.704Z,10.50
2022-11-28T00:26:56.772Z,10.30
2022-11-28T00:27:51.813Z,10.10
2022-11-28T00:28:46.841Z,9.50
2022-11-28T00:29:42.405Z,10.10
2022-11-28T00:30:37.638Z,10.00
2022-11-28T00:31:32.962Z,9.20
2022-11-28T00:32:28.211Z,9.80
2022-11-28T00:33:23.388Z,9.90
2022-11-28T00:34:18.682Z,8.60
2022-11-28T00:35:14.960Z,10.60
2022-11-28T00:36:10.319Z,10.10
2022-11-28T00:37:05.459Z,10.20
2022-11-28T00:38:00.647Z,10.00
2022-11-28T00:38:55.776Z,10.40
2022-11-28T00:39:51.223Z,10.10
2022-11-28T00:40:46.255Z,10.40
2022-11-28T00:41:41.702Z,10.00
2022-11-28T00:42:36.732Z,10.30
2022-11-28T00:43:32.175Z,10.70
2022-11-28T00:44:27.363Z,9.00
2022-11-28T00:45:22.647Z,9.30
2022-11-28T00:46:17.849Z,9.30
2022-11-28T00:47:12.959Z,9.20
2022-11-28T00:48:08.091Z,9.30
2022-11-28T00:49:03.379Z,9.20
2022-11-28T00:49:58.560Z,8.90
2022-11-28T00:50:53.713Z,11.40
2022-11-28T00:51:49.053Z,10.80
2022-11-28T00:52:44.099Z,11.10
2022-11-28T00:53:39.251Z,11.50
2022-11-28T00:54:34.424Z,12.10
2022-11-28T00:55:29.575Z,12.30
2022-11-28T00:56:25.029Z,12.60
2022-11-28T00:57:20.064Z,13.20
2022-11-28T00:58:15.225Z,15.50
2022-11-28T00:59:10.365Z,16.40
2022-11-28T01:00:05.951Z,16.40
2022-11-28T01:01:01.009Z,17.00
2022-11-28T01:01:56.113Z,15.30
2022-11-28T01:02:51.247Z,14.80
2022-11-28T01:03:46.284Z,16.60
2022-11-28T01:04:41.494Z,17.10
2022-11-28T01:05:36.358Z,13.40
2022-11-28T01:06:31.391Z,12.80
2022-11-28T01:07:26.866Z,12.70
2022-11-28T01:08:21.788Z,12.80
2022-11-28T01:09:16.808Z,11.60
2022-11-28T01:10:11.819Z,11.20
2022-11-28T01:11:06.848Z,10.70
2022-11-28T01:12:01.844Z,10.70
2022-11-28T01:12:56.941Z,10.60
2022-11-28T01:13:51.950Z,11.30
2022-11-28T01:14:47.000Z,13.00
2022-11-28T01:15:42.024Z,11.80
2022-11-28T01:16:37.186Z,11.80
2022-11-28T01:17:32.148Z,12.10
2022-11-28T01:18:27.241Z,12.60
2022-11-28T01:19:22.367Z,14.60
2022-11-28T01:20:17.843Z,16.10
2022-11-28T01:21:12.873Z,16.50
2022-11-28T01:22:08.207Z,14.90
2022-11-28T01:23:03.368Z,15.40
2022-11-28T01:23:58.665Z,14.10
2022-11-28T01:24:53.794Z,15.90
2022-11-28T01:25:48.990Z,18.00
2022-11-28T01:26:44.711Z,17.00
2022-11-28T01:27:39.971Z,16.50
2022-11-28T01:28:35.692Z,16.90
2022-11-28T01:29:30.982Z,15.20
2022-11-28T01:30:26.171Z,14.70
2022-11-28T01:31:22.502Z,14.40
2022-11-28T01:32:17.286Z,14.20
2022-11-28T01:33:12.568Z,15.50
2022-11-28T01:34:08.843Z,14.70
2022-11-28T01:35:04.166Z,14.80
2022-11-28T01:35:59.881Z,14.60
2022-11-28T01:36:55.079Z,15.00
2022-11-28T01:37:50.244Z,13.70
2022-11-28T01:38:46.166Z,13.60
2022-11-28T01:39:41.317Z,14.10
2022-11-28T01:40:37.297Z,13.30
2022-11-28T01:41:32.351Z,13.50
2022-11-28T01:42:27.553Z,13.80
2022-11-28T01:43:23.342Z,14.40
2022-11-28T01:44:18.513Z,14.10
2022-11-28T01:45:13.819Z,13.60
2022-11-28T01:46:10.096Z,14.50
2022-11-28T01:47:05.355Z,13.40
2022-11-28T01:48:01.130Z,12.90
2022-11-28T01:48:56.430Z,13.10
2022-11-28T01:49:51.742Z,13.30
2022-11-28T01:50:47.512Z,13.10
2022-11-28T01:51:42.689Z,12.80
2022-11-28T01:52:38.577Z,13.40
2022-11-28T01:53:33.701Z,12.40
2022-11-28T01:54:29.169Z,12.30
2022-11-28T01:55:24.782Z,12.40
2022-11-28T01:56:20.129Z,12.40
2022-11-28T01:57:15.276Z,12.40
2022-11-28T01:58:11.807Z,12.10
2022-11-28T01:59:06.995Z,12.40
2022-11-28T02:00:02.868Z,12.80
2022-11-28T02:00:58.045Z,11.40
2022-11-28T02:01:53.278Z,12.80
2022-11-28T02:02:48.984Z,12.30
2022-11-28T02:03:44.197Z,10.60
2022-11-28T02:04:40.016Z,9.40
2022-11-28T02:05:35.140Z,9.40
2022-11-28T02:06:30.486Z,9.80
2022-11-28T02:07:26.307Z,10.30
2022-11-28T02:08:21.490Z,9.60
2022-11-28T02:09:16.668Z,10.30
2022-11-28T02:10:12.950Z,10.00
2022-11-28T02:11:08.121Z,10.20
2022-11-28T02:12:03.832Z,10.40
2022-11-28T02:12:59.015Z,10.80
2022-11-28T02:13:54.192Z,10.20
2022-11-28T02:14:49.949Z,10.60
2022-11-28T02:15:45.154Z,11.20
2022-11-28T02:16:41.086Z,11.50
2022-11-28T02:17:36.138Z,10.40
2022-11-28T02:18:31.592Z,10.90
2022-11-28T02:19:27.325Z,11.10
2022-11-28T02:20:22.669Z,11.70
2022-11-28T02:21:17.946Z,11.80
2022-11-28T02:22:14.373Z,11.80
2022-11-28T02:23:09.539Z,13.40
2022-11-28T02:24:05.434Z,12.40
2022-11-28T02:25:00.575Z,13.10
2022-11-28T02:25:56.053Z,12.30
2022-11-28T02:26:51.103Z,11.60
2022-11-28T02:27:46.540Z,12.60
2022-11-28T02:28:42.283Z,13.00
2022-11-28T02:29:37.510Z,13.40
2022-11-28T02:30:32.781Z,12.30
2022-11-28T02:31:29.283Z,13.90
2022-11-28T02:32:24.468Z,13.10
2022-11-28T02:33:20.377Z,12.90
2022-11-28T02:34:15.503Z,12.00
2022-11-28T02:35:10.989Z,13.60
2022-11-28T02:36:06.609Z,12.20
2022-11-28T02:37:01.921Z,13.30
2022-11-28T02:37:57.666Z,12.40
2022-11-28T02:38:52.855Z,13.30
2022-11-28T02:39:48.155Z,13.20
2022-11-28T02:40:43.896Z,12.90
2022-11-28T02:41:39.063Z,13.20
2022-11-28T02:42:34.251Z,13.10
2022-11-28T02:43:29.417Z,12.90
2022-11-28T02:44:24.725Z,13.30
2022-11-28T02:45:19.776Z,12.10
2022-11-28T02:46:14.918Z,12.40
2022-11-28T02:47:13.384Z,11.80
2022-11-28T02:48:08.591Z,13.00
2022-11-28T02:49:03.885Z,13.30
2022-11-28T02:49:59.198Z,12.20
2022-11-28T02:50:54.225Z,12.60
2022-11-28T02:51:49.289Z,11.40
2022-11-28T02:52:44.331Z,11.90
2022-11-28T02:53:39.368Z,11.90
2022-11-28T02:54:34.426Z,11.50
2022-11-28T02:55:29.449Z,12.60
2022-11-28T02:56:24.517Z,11.50
2022-11-28T02:57:19.584Z,11.80
2022-11-28T02:58:14.591Z,11.30
2022-11-28T02:59:09.645Z,10.70
2022-11-28T03:00:04.813Z,10.40
2022-11-28T03:00:59.904Z,11.30
2022-11-28T03:01:54.912Z,10.60
2022-11-28T03:02:49.946Z,10.80
2022-11-28T03:03:45.019Z,11.10
2022-11-28T03:04:40.320Z,10.70
2022-11-28T03:05:35.306Z,10.60
2022-11-28T03:06:30.512Z,10.50
2022-11-28T03:07:25.709Z,10.10
2022-11-28T03:08:20.756Z,10.80
2022-11-28T03:09:15.782Z,10.50
2022-11-28T03:10:10.811Z,10.00
2022-11-28T03:11:05.865Z,9.40
2022-11-28T03:12:01.025Z,10.50
2022-11-28T03:12:56.032Z,10.20
2022-11-28T03:13:51.090Z,10.00
2022-11-28T03:14:46.109Z,9.60
2022-11-28T03:15:41.259Z,9.70
2022-11-28T03:16:36.325Z,10.30
2022-11-28T03:17:31.371Z,10.40
2022-11-28T03:18:26.392Z,10.70
2022-11-28T03:19:21.407Z,9.60
2022-11-28T03:20:16.558Z,10.40
2022-11-28T03:21:11.764Z,10.40
2022-11-28T03:22:06.923Z,10.60
2022-11-28T03:23:02.411Z,10.70
2022-11-28T03:23:57.443Z,11.70
2022-11-28T03:24:52.624Z,11.60
2022-11-28T03:25:47.787Z,11.60
2022-11-28T03:26:43.103Z,12.30
2022-11-28T03:27:38.411Z,12.40
2022-11-28T03:28:33.475Z,13.30
2022-11-28T03:29:28.621Z,13.70
2022-11-28T03:30:23.810Z,14.80
2022-11-28T03:31:19.155Z,15.70
2022-11-28T03:32:14.314Z,15.40
2022-11-28T03:33:09.511Z,14.20
2022-11-28T03:34:04.690Z,13.80
2022-11-28T03:34:59.873Z,15.30
2022-11-28T03:35:55.038Z,13.70
2022-11-28T03:36:50.203Z,15.40
2022-11-28T03:37:45.411Z,15.60
2022-11-28T03:38:40.548Z,16.30
2022-11-28T03:39:35.979Z,16.70
2022-11-28T03:40:31.126Z,15.70
2022-11-28T03:41:26.195Z,16.70
2022-11-28T03:42:21.381Z,16.40
2022-11-28T03:43:16.525Z,18.30
2022-11-28T03:44:11.825Z,21.60
2022-11-28T03:45:07.125Z,19.80
2022-11-28T03:46:02.125Z,20.80
2022-11-28T03:46:57.405Z,22.30
2022-11-28T03:47:52.555Z,21.30
2022-11-28T03:48:47.838Z,23.70
2022-11-28T03:49:45.560Z,23.40
2022-11-28T03:50:40.739Z,23.00
2022-11-28T03:51:35.895Z,24.80
2022-11-28T03:52:31.087Z,25.30
2022-11-28T03:53:26.409Z,23.60
2022-11-28T03:54:21.572Z,24.80
2022-11-28T03:55:16.665Z,25.10
2022-11-28T03:56:11.773Z,24.40
2022-11-28T03:57:06.677Z,20.90
2022-11-28T03:58:01.828Z,20.80
2022-11-28T03:58:56.827Z,21.30
2022-11-28T03:59:51.903Z,21.30
2022-11-28T04:00:46.968Z,20.30
2022-11-28T04:01:42.027Z,20.60
2022-11-28T04:02:37.113Z,19.80
2022-11-28T04:03:32.080Z,20.30
2022-11-28T04:04:27.107Z,19.90
2022-11-28T04:05:22.135Z,19.90
2022-11-28T04:06:17.184Z,20.40
2022-11-28T04:07:12.493Z,20.20
2022-11-28T04:08:07.315Z,17.80
2022-11-28T04:09:02.435Z,18.10
2022-11-28T04:09:57.453Z,17.80
2022-11-28T04:10:52.496Z,16.60
2022-11-28T04:11:47.529Z,16.50
2022-11-28T04:12:42.549Z,15.30
2022-11-28T04:13:37.781Z,14.50
2022-11-28T04:14:32.949Z,13.80
2022-11-28T04:15:28.094Z,13.60
2022-11-28T04:16:23.357Z,11.90
2022-11-28T04:17:18.506Z,12.60
2022-11-28T04:18:13.798Z,12.90
2022-11-28T04:19:08.997Z,11.10
2022-11-28T04:20:04.325Z,11.10
2022-11-28T04:20:59.604Z,12.00
2022-11-28T04:21:54.803Z,11.60
2022-11-28T04:22:49.947Z,11.10
2022-11-28T04:23:45.151Z,12.80
2022-11-28T04:24:40.488Z,12.30
2022-11-28T04:25:35.514Z,12.20
2022-11-28T04:26:30.704Z,12.40
2022-11-28T04:27:26.004Z,11.80
2022-11-28T04:28:21.294Z,13.00
2022-11-28T04:29:16.504Z,14.00
2022-11-28T04:30:11.657Z,13.70
2022-11-28T04:31:06.894Z,13.80
2022-11-28T04:32:02.109Z,12.40
2022-11-28T04:32:57.463Z,13.00
2022-11-28T04:33:52.519Z,13.00
2022-11-28T04:34:47.824Z,13.80
2022-11-28T04:35:42.989Z,13.80
2022-11-28T04:36:38.327Z,13.10
2022-11-28T04:37:33.629Z,14.40
2022-11-28T04:38:28.706Z,12.90
2022-11-28T04:39:23.849Z,11.80
2022-11-28T04:40:19.044Z,12.80
2022-11-28T04:41:14.161Z,11.60
2022-11-28T04:42:09.459Z,12.20
2022-11-28T04:43:04.648Z,12.40
2022-11-28T04:43:59.940Z,12.50
2022-11-28T04:44:55.222Z,12.40
2022-11-28T04:45:50.447Z,11.50
2022-11-28T04:46:45.599Z,12.70
2022-11-28T04:47:40.798Z,10.50
2022-11-28T04:48:35.924Z,12.00
2022-11-28T04:49:31.375Z,11.40
2022-11-28T04:50:26.407Z,11.50
2022-11-28T04:51:21.586Z,10.70
2022-11-28T04:52:16.829Z,14.30
2022-11-28T04:53:12.200Z,12.00
2022-11-28T04:54:07.216Z,12.00
2022-11-28T04:55:02.271Z,11.50
2022-11-28T04:55:57.303Z,14.30
2022-11-28T04:56:52.331Z,13.70
2022-11-28T04:57:47.372Z,13.90
2022-11-28T04:58:42.426Z,14.10
2022-11-28T04:59:37.490Z,13.00
2022-11-28T05:00:32.557Z,15.00
2022-11-28T05:01:27.703Z,14.90
2022-11-28T05:02:22.793Z,14.40
2022-11-28T05:03:17.698Z,14.00
2022-11-28T05:04:12.778Z,14.50
2022-11-28T05:05:07.803Z,14.10
2022-11-28T05:06:02.849Z,14.50
2022-11-28T05:06:57.870Z,13.80
2022-11-28T05:07:53.023Z,14.80
2022-11-28T05:08:47.932Z,12.30
2022-11-28T05:09:42.964Z,13.50
2022-11-28T05:10:37.974Z,13.90
2022-11-28T05:11:33.723Z,13.00
2022-11-28T05:12:28.874Z,12.60
2022-11-28T05:13:24.049Z,10.60
2022-11-28T05:14:19.243Z,11.80
2022-11-28T05:15:14.701Z,13.00
2022-11-28T05:16:10.044Z,12.30
2022-11-28T05:17:05.112Z,14.30
2022-11-28T05:18:00.282Z,14.20
2022-11-28T05:18:55.483Z,14.60
2022-11-28T05:19:51.339Z,14.00
2022-11-28T05:20:46.665Z,14.40
2022-11-28T05:21:42.398Z,14.80
2022-11-28T05:22:37.580Z,15.50
2022-11-28T05:23:32.916Z,14.80
2022-11-28T05:24:32.216Z,14.80
2022-11-28T05:25:23.756Z,15.60
2022-11-28T05:26:18.960Z,14.90
2022-11-28T05:27:15.377Z,14.30
2022-11-28T05:28:10.739Z,15.20
2022-11-28T05:29:06.484Z,15.00
2022-11-28T05:30:01.669Z,16.00
2022-11-28T05:30:56.878Z,15.80
2022-11-28T05:31:52.725Z,14.00
2022-11-28T05:32:47.883Z,15.10
2022-11-28T05:33:43.626Z,15.50
2022-11-28T05:34:38.781Z,14.40
2022-11-28T05:35:34.137Z,13.80
2022-11-28T05:36:29.890Z,14.30
2022-11-28T05:37:25.222Z,14.90
2022-11-28T05:38:20.423Z,14.10
2022-11-28T05:39:16.704Z,14.30
2022-11-28T05:40:12.043Z,13.30
2022-11-28T05:41:07.794Z,14.50
2022-11-28T05:42:03.036Z,11.00
2022-11-28T05:42:58.204Z,10.30
2022-11-28T05:43:53.980Z,11.00
2022-11-28T05:44:49.154Z,10.00
2022-11-28T05:45:45.118Z,9.30
2022-11-28T05:46:40.166Z,9.40
2022-11-28T05:47:35.364Z,10.10
2022-11-28T05:48:31.320Z,10.80
2022-11-28T05:49:26.406Z,10.10
2022-11-28T05:50:21.694Z,9.70
2022-11-28T05:51:18.158Z,10.70
2022-11-28T05:52:13.325Z,10.50
2022-11-28T05:53:09.109Z,10.80
2022-11-28T05:54:04.249Z,8.60
2022-11-28T05:54:59.702Z,10.00
2022-11-28T05:55:55.318Z,10.30
2022-11-28T05:56:50.681Z,9.80
2022-11-28T05:57:46.431Z,9.40
2022-11-28T05:58:41.601Z,9.90
2022-11-28T05:59:36.916Z,9.50
2022-11-28T06:00:32.666Z,10.20
2022-11-28T06:01:27.861Z,10.20
2022-11-28T06:02:23.124Z,9.60
2022-11-28T06:03:19.481Z,9.80
2022-11-28T06:04:14.865Z,10.80
2022-11-28T06:05:34.701Z,9.70
2022-11-28T06:06:06.793Z,10.20
2022-11-28T06:07:01.081Z,9.30
2022-11-28T06:07:57.438Z,9.00
2022-11-28T06:08:52.656Z,10.50
2022-11-28T06:09:48.515Z,9.10
2022-11-28T06:10:43.664Z,8.70
2022-11-28T06:11:39.027Z,9.50
2022-11-28T06:12:34.747Z,10.10
2022-11-28T06:13:29.964Z,8.90
2022-11-28T06:14:25.145Z,9.30
2022-11-28T06:15:21.591Z,8.80
2022-11-28T06:16:16.807Z,9.20
2022-11-28T06:17:12.554Z,9.00
2022-11-28T06:18:07.742Z,9.30
2022-11-28T06:19:02.955Z,9.50
2022-11-28T06:19:58.110Z,9.80
2022-11-28T06:20:53.525Z,9.20
2022-11-28T06:21:49.451Z,9.30
2022-11-28T06:22:44.651Z,9.70
2022-11-28T06:23:39.804Z,9.90
2022-11-28T06:24:36.251Z,10.90
2022-11-28T06:25:31.417Z,11.30
2022-11-28T06:26:27.169Z,10.00
2022-11-28T06:27:22.376Z,10.00
2022-11-28T06:28:17.593Z,9.90
2022-11-28T06:29:13.378Z,10.30
2022-11-28T06:30:08.639Z,9.40
2022-11-28T06:31:04.530Z,9.60
2022-11-28T06:31:59.684Z,10.80
2022-11-28T06:32:55.068Z,10.80
2022-11-28T06:33:50.941Z,10.40
2022-11-28T06:34:46.185Z,10.40
2022-11-28T06:35:41.561Z,9.80
2022-11-28T06:36:36.652Z,9.70
2022-11-28T06:37:31.893Z,9.80
2022-11-28T06:38:26.921Z,10.30
2022-11-28T06:39:21.920Z,11.30
2022-11-28T06:40:20.551Z,10.70
2022-11-28T06:41:15.827Z,11.90
2022-11-28T06:42:11.061Z,10.80
2022-11-28T06:43:06.387Z,10.10
2022-11-28T06:44:01.324Z,10.70
2022-11-28T06:44:56.462Z,10.60
2022-11-28T06:45:51.572Z,10.30
2022-11-28T06:46:46.478Z,10.30
2022-11-28T06:47:41.606Z,11.20
2022-11-28T06:48:36.798Z,10.80
2022-11-28T06:49:31.787Z,9.70
2022-11-28T06:50:26.959Z,12.30
2022-11-28T06:51:22.556Z,10.50
2022-11-28T06:52:17.834Z,10.80
2022-11-28T06:53:13.165Z,10.70
2022-11-28T06:54:08.465Z,11.50
2022-11-28T06:55:03.508Z,10.30
2022-11-28T06:55:58.571Z,10.60
2022-11-28T06:56:53.586Z,9.80
2022-11-28T06:57:48.687Z,10.80
2022-11-28T06:58:43.665Z,9.90
2022-11-28T06:59:38.733Z,10.20
2022-11-28T07:00:35.981Z,11.00
2022-11-28T07:01:31.210Z,10.10
2022-11-28T07:02:26.214Z,11.30
2022-11-28T07:03:21.315Z,10.50
2022-11-28T07:04:16.386Z,9.90
2022-11-28T07:05:11.481Z,10.60
2022-11-28T07:06:06.577Z,10.20
2022-11-28T07:07:01.665Z,10.70
2022-11-28T07:07:56.636Z,10.40
2022-11-28T07:08:51.736Z,9.20
2022-11-28T07:09:46.705Z,9.70
2022-11-28T07:10:41.789Z,9.60
2022-11-28T07:11:36.838Z,9.80
2022-11-28T07:12:31.950Z,9.80
2022-11-28T07:13:27.000Z,9.60
2022-11-28T07:14:22.510Z,9.60
2022-11-28T07:15:20.825Z,9.30
2022-11-28T07:16:16.277Z,9.60
2022-11-28T07:17:11.493Z,9.80
2022-11-28T07:18:06.856Z,9.20
2022-11-28T07:19:02.189Z,9.90
2022-11-28T07:19:57.703Z,9.40
2022-11-28T07:20:52.901Z,8.80
2022-11-28T07:21:48.235Z,9.80
2022-11-28T07:22:43.591Z,8.90
2022-11-28T07:23:41.676Z,8.40
2022-11-28T07:24:37.027Z,8.50
2022-11-28T07:25:32.537Z,9.20
2022-11-28T07:26:27.767Z,9.60
2022-11-28T07:27:23.217Z,9.70
2022-11-28T07:28:21.982Z,8.60
2022-11-28T07:29:13.904Z,8.20
2022-11-28T07:30:09.238Z,8.50
2022-11-28T07:31:04.629Z,8.00
2022-11-28T07:32:00.029Z,8.90
2022-11-28T07:32:55.284Z,8.90
2022-11-28T07:33:50.599Z,7.30
2022-11-28T07:34:49.945Z,8.00
2022-11-28T07:35:41.297Z,8.40
2022-11-28T07:36:36.719Z,7.70
2022-11-28T07:37:32.088Z,7.70
2022-11-28T07:38:27.479Z,8.10
2022-11-28T07:39:22.855Z,8.20
2022-11-28T07:40:18.420Z,9.00
2022-11-28T07:41:13.651Z,8.50
2022-11-28T07:42:09.082Z,7.80
2022-11-28T07:43:05.694Z,7.80
2022-11-28T07:44:01.103Z,8.30
2022-11-28T07:44:56.493Z,8.00
2022-11-28T07:46:00.887Z,8.20
2022-11-28T07:46:48.805Z,10.10
2022-11-28T07:47:43.234Z,9.50
2022-11-28T07:48:38.769Z,9.30
2022-11-28T07:49:33.920Z,9.60
2022-11-28T07:50:28.917Z,9.80
2022-11-28T07:51:23.932Z,10.40
2022-11-28T07:52:18.928Z,9.00
2022-11-28T07:53:14.069Z,9.30
2022-11-28T07:54:09.157Z,10.30
2022-11-28T07:55:04.297Z,10.00
2022-11-28T07:56:01.590Z,11.50
2022-11-28T07:57:12.432Z,11.20
2022-11-28T07:57:52.687Z,10.60
2022-11-28T07:58:46.789Z,11.10
2022-11-28T07:59:43.126Z,11.10
2022-11-28T08:00:38.388Z,10.70
2022-11-28T08:01:34.855Z,10.60
2022-11-28T08:02:30.276Z,10.50
2022-11-28T08:03:24.912Z,11.30
2022-11-28T08:04:20.471Z,10.10
2022-11-28T08:05:15.881Z,11.40
2022-11-28T08:06:11.471Z,11.60
2022-11-28T08:07:06.793Z,11.60
2022-11-28T08:08:02.393Z,12.70
2022-11-28T08:08:58.002Z,11.70
2022-11-28T08:09:53.325Z,12.60
2022-11-28T08:10:48.758Z,13.40
2022-11-28T08:11:44.239Z,13.00
2022-11-28T08:12:39.242Z,13.20
2022-11-28T08:13:34.338Z,13.60
2022-11-28T08:14:29.377Z,13.40
2022-11-28T08:15:24.414Z,14.00
2022-11-28T08:16:19.608Z,13.60
2022-11-28T08:17:14.751Z,16.00
2022-11-28T08:18:09.784Z,15.10
2022-11-28T08:19:06.594Z,14.40
2022-11-28T08:20:01.784Z,15.70
2022-11-28T08:20:56.864Z,15.10
2022-11-28T08:21:51.909Z,16.40
2022-11-28T08:22:47.094Z,15.10
2022-11-28T08:23:41.998Z,17.00
2022-11-28T08:24:37.229Z,17.30
2022-11-28T08:25:32.285Z,16.50
2022-11-28T08:26:30.395Z,17.30
2022-11-28T08:27:23.090Z,17.10
2022-11-28T08:28:18.702Z,19.90
2022-11-28T08:29:14.053Z,18.10
2022-11-28T08:30:09.486Z,17.10
2022-11-28T08:31:04.970Z,17.60
2022-11-28T08:32:00.404Z,16.20
2022-11-28T08:32:55.979Z,16.90
2022-11-28T08:33:51.455Z,16.00
2022-11-28T08:34:46.880Z,16.20
2022-11-28T08:35:42.317Z,15.80
2022-11-28T08:36:37.762Z,16.90
2022-11-28T08:37:33.355Z,16.30
2022-11-28T08:38:28.762Z,15.00
2022-11-28T08:39:25.268Z,15.10
2022-11-28T08:40:19.556Z,16.00
2022-11-28T08:41:15.019Z,15.90
2022-11-28T08:42:14.378Z,15.40
2022-11-28T08:43:09.853Z,15.80
2022-11-28T08:44:05.186Z,16.10
2022-11-28T08:45:00.681Z,15.50
2022-11-28T08:45:56.207Z,16.50
2022-11-28T08:46:51.204Z,15.60
2022-11-28T08:47:46.231Z,16.10
2022-11-28T08:48:41.293Z,16.40
2022-11-28T08:49:36.319Z,16.10
2022-11-28T08:50:31.386Z,16.20
2022-11-28T08:51:26.439Z,16.50
2022-11-28T08:52:21.784Z,16.10
2022-11-28T08:53:18.561Z,16.70
2022-11-28T08:54:11.883Z,16.60
2022-11-28T08:55:06.947Z,16.20
2022-11-28T08:56:01.988Z,16.70
2022-11-28T08:56:57.037Z,17.90
2022-11-28T08:57:52.125Z,19.60
2022-11-28T08:58:47.160Z,19.60
2022-11-28T08:59:42.379Z,18.60
2022-11-28T09:00:37.208Z,20.30
2022-11-28T09:01:32.521Z,21.70
2022-11-28T09:02:27.843Z,19.60
2022-11-28T09:03:23.439Z,20.70
2022-11-28T09:04:18.914Z,19.60
2022-11-28T09:05:15.377Z,20.20
2022-11-28T09:06:10.798Z,20.50
2022-11-28T09:07:06.390Z,19.10
2022-11-28T09:08:01.933Z,20.40
2022-11-28T09:08:57.275Z,20.60
2022-11-28T09:09:52.746Z,21.60
2022-11-28T09:10:48.253Z,22.20
2022-11-28T09:11:43.680Z,21.70
2022-11-28T09:12:39.146Z,22.40
2022-11-28T09:13:34.642Z,22.50
2022-11-28T09:14:29.719Z,23.50
2022-11-28T09:15:24.767Z,23.10
2022-11-28T09:16:20.028Z,23.00
2022-11-28T09:17:14.966Z,22.90
2022-11-28T09:18:10.066Z,23.00
2022-11-28T09:19:04.998Z,23.80
2022-11-28T09:20:00.118Z,23.40
2022-11-28T09:20:57.730Z,24.30
2022-11-28T09:21:57.549Z,24.30
2022-11-28T09:22:48.605Z,23.80
2022-11-28T09:23:44.122Z,21.80
2022-11-28T09:24:39.563Z,23.00
2022-11-28T09:25:35.010Z,23.30
2022-11-28T09:26:30.478Z,23.00
2022-11-28T09:27:25.931Z,23.50
2022-11-28T09:28:21.371Z,23.20
2022-11-28T09:29:16.906Z,23.70
2022-11-28T09:30:12.343Z,23.50
2022-11-28T09:31:07.897Z,23.90
2022-11-28T09:32:03.375Z,22.80
2022-11-28T09:32:58.810Z,22.20
2022-11-28T09:33:54.328Z,17.80
2022-11-28T09:34:49.251Z,17.50
2022-11-28T09:35:44.259Z,16.40
2022-11-28T09:36:39.325Z,15.30
2022-11-28T09:37:34.371Z,15.40
2022-11-28T09:38:29.419Z,16.70
2022-11-28T09:39:24.605Z,16.10
2022-11-28T09:40:19.712Z,18.60
2022-11-28T09:41:14.570Z,17.60
2022-11-28T09:42:09.633Z,19.00
2022-11-28T09:43:04.678Z,18.70
2022-11-28T09:43:59.752Z,18.30
2022-11-28T09:44:54.783Z,19.70
2022-11-28T09:45:49.997Z,18.30
2022-11-28T09:46:45.106Z,18.80
2022-11-28T09:47:40.130Z,17.80
2022-11-28T09:48:35.223Z,17.90
2022-11-28T09:49:32.117Z,16.60
2022-11-28T09:50:26.325Z,17.70
2022-11-28T09:51:20.567Z,18.00
2022-11-28T09:52:16.302Z,16.60
2022-11-28T09:53:11.187Z,19.40
2022-11-28T09:54:06.264Z,19.50
2022-11-28T09:55:01.332Z,19.60
2022-11-28T09:55:56.404Z,20.70
2022-11-28T09:56:51.466Z,19.50
2022-11-28T09:57:46.572Z,18.80
2022-11-28T09:58:41.526Z,19.50
2022-11-28T09:59:36.639Z,19.50
2022-11-28T10:00:31.692Z,21.00
2022-11-28T10:01:26.769Z,21.10
2022-11-28T10:02:21.838Z,20.70
2022-11-28T10:03:16.991Z,21.20
2022-11-28T10:04:12.058Z,21.90
2022-11-28T10:05:07.115Z,21.80
2022-11-28T10:06:02.439Z,22.60
2022-11-28T10:06:57.913Z,21.00
2022-11-28T10:07:55.158Z,21.20
2022-11-28T10:08:48.975Z,21.70
2022-11-28T10:09:44.682Z,21.80
2022-11-28T10:10:39.504Z,21.60
2022-11-28T10:11:34.531Z,20.60
2022-11-28T10:12:29.585Z,20.20
2022-11-28T10:13:32.639Z,21.90
2022-11-28T10:14:22.063Z,28.20
2022-11-28T10:15:16.063Z,22.50
2022-11-28T10:16:11.278Z,22.20
2022-11-28T10:17:07.277Z,21.70
2022-11-28T10:18:02.651Z,22.50
2022-11-28T10:18:58.090Z,21.20
2022-11-28T10:19:54.830Z,22.10
2022-11-28T10:20:49.062Z,23.80
2022-11-28T10:21:44.537Z,21.60
2022-11-28T10:22:40.013Z,21.80
2022-11-28T10:23:35.435Z,22.60
2022-11-28T10:24:31.006Z,21.50
2022-11-28T10:25:26.617Z,21.20
2022-11-28T10:26:21.914Z,21.90
2022-11-28T10:27:18.460Z,21.90
2022-11-28T10:28:12.712Z,21.10
2022-11-28T10:29:08.202Z,22.90
2022-11-28T10:30:03.215Z,22.60
2022-11-28T10:30:58.302Z,23.30
2022-11-28T10:31:53.368Z,21.30
2022-11-28T10:32:48.419Z,21.20
2022-11-28T10:33:43.461Z,20.20
2022-11-28T10:34:38.489Z,21.30
2022-11-28T10:35:33.552Z,21.50
2022-11-28T10:36:30.927Z,21.20
2022-11-28T10:37:25.945Z,21.40
2022-11-28T10:38:20.969Z,20.10
2022-11-28T10:39:16.011Z,20.30
2022-11-28T10:40:11.029Z,20.20
2022-11-28T10:41:06.090Z,19.00
2022-11-28T10:42:01.329Z,20.40
2022-11-28T10:42:56.204Z,19.90
2022-11-28T10:43:52.629Z,19.80
2022-11-28T10:44:48.075Z,19.60
2022-11-28T10:45:43.612Z,19.20
2022-11-28T10:46:38.953Z,20.70
2022-11-28T10:47:34.417Z,21.30
2022-11-28T10:48:39.667Z,20.40
2022-11-28T10:49:26.324Z,20.90
2022-11-28T10:50:21.135Z,19.50
2022-11-28T10:51:16.628Z,22.30
2022-11-28T10:52:12.123Z,20.90
2022-11-28T10:53:07.179Z,20.90
2022-11-28T10:54:02.233Z,21.10
2022-11-28T10:54:57.379Z,20.30
2022-11-28T10:55:52.402Z,19.30
2022-11-28T10:56:47.502Z,19.80
2022-11-28T10:57:42.581Z,20.10
2022-11-28T10:58:37.559Z,20.50
2022-11-28T10:59:34.727Z,19.90
2022-11-28T11:00:29.752Z,19.80
2022-11-28T11:01:24.928Z,19.80
2022-11-28T11:02:19.923Z,19.90
2022-11-28T11:03:14.961Z,20.40
2022-11-28T11:04:10.108Z,19.00
2022-11-28T11:05:05.064Z,19.90
2022-11-28T11:06:00.131Z,19.60
2022-11-28T11:07:08.822Z,19.60
2022-11-28T11:07:51.282Z,19.60
2022-11-28T11:08:45.289Z,22.90
2022-11-28T11:09:40.578Z,21.80
2022-11-28T11:10:35.418Z,20.60
2022-11-28T11:11:30.505Z,21.00
2022-11-28T11:12:25.574Z,19.60
2022-11-28T11:13:20.761Z,19.60
2022-11-28T11:14:16.231Z,20.70
2022-11-28T11:15:15.054Z,19.70
2022-11-28T11:16:10.506Z,20.20
2022-11-28T11:17:05.988Z,19.80
2022-11-28T11:18:01.436Z,21.40
2022-11-28T11:18:56.889Z,20.70
2022-11-28T11:19:52.354Z,19.00
2022-11-28T11:20:47.938Z,19.10
2022-11-28T11:21:43.364Z,18.80
2022-11-28T11:22:39.019Z,18.90
2022-11-28T11:23:38.212Z,19.80
2022-11-28T11:24:30.009Z,19.70
2022-11-28T11:25:25.483Z,18.40
2022-11-28T11:26:21.080Z,19.10
2022-11-28T11:27:16.529Z,17.90
2022-11-28T11:28:12.111Z,18.70
2022-11-28T11:29:07.115Z,19.00
2022-11-28T11:30:02.150Z,18.90
2022-11-28T11:30:57.233Z,19.20
2022-11-28T11:31:52.265Z,17.90
2022-11-28T11:32:51.231Z,17.90
2022-11-28T11:33:42.530Z,18.10
2022-11-28T11:34:37.600Z,19.10
2022-11-28T11:35:32.686Z,17.90
2022-11-28T11:36:27.727Z,18.50
2022-11-28T11:37:22.782Z,18.20
2022-11-28T11:38:18.961Z,19.20
2022-11-28T11:39:14.556Z,18.90
2022-11-28T11:40:09.990Z,17.90
2022-11-28T11:41:05.471Z,18.30
2022-11-28T11:42:00.897Z,17.80
2022-11-28T11:42:56.346Z,18.30
2022-11-28T11:43:52.001Z,17.80
2022-11-28T11:44:47.453Z,17.60
2022-11-28T11:45:44.347Z,16.40
2022-11-28T11:46:38.553Z,17.50
2022-11-28T11:47:33.831Z,17.20
2022-11-28T11:48:29.316Z,18.30
2022-11-28T11:49:24.647Z,18.60
2022-11-28T11:50:20.797Z,18.80
2022-11-28T11:51:15.978Z,18.30
2022-11-28T11:52:11.453Z,19.50
2022-11-28T11:53:06.906Z,18.90
2022-11-28T11:54:02.517Z,18.50
2022-11-28T11:54:57.826Z,17.80
2022-11-28T11:55:53.280Z,18.10